createdAt,value
2017-11-03T00:02:07.946Z,18.03
2017-11-03T00:04:38.805Z,16.50
2017-11-03T00:07:09.663Z,17.10
2017-11-03T00:09:40.532Z,21.60
2017-11-03T00:12:11.373Z,16.87
2017-11-03T00:14:42.243Z,15.33
2017-11-03T00:17:13.098Z,16.00
2017-11-03T00:19:43.969Z,19.20
2017-11-03T00:22:14.847Z,16.30
2017-11-03T00:24:45.686Z,17.27
2017-11-03T00:27:16.540Z,14.90
2017-11-03T00:29:47.435Z,18.00
2017-11-03T00:32:18.298Z,15.80
2017-11-03T00:34:49.154Z,15.73
2017-11-03T00:37:20.009Z,16.53
2017-11-03T00:39:50.865Z,15.93
2017-11-03T00:42:21.717Z,19.30
2017-11-03T00:44:52.589Z,13.60
2017-11-03T00:47:23.453Z,14.33
2017-11-03T00:49:54.320Z,13.40
2017-11-03T00:52:25.192Z,14.87
2017-11-03T00:54:56.028Z,14.63
2017-11-03T00:57:26.916Z,15.67
2017-11-03T00:59:57.761Z,15.37
2017-11-03T01:02:28.647Z,14.90
2017-11-03T01:04:59.504Z,15.00
2017-11-03T01:07:30.349Z,11.70
2017-11-03T01:10:01.220Z,14.10
2017-11-03T01:12:32.052Z,10.90
2017-11-03T01:15:02.920Z,14.60
2017-11-03T01:17:33.776Z,12.50
2017-11-03T01:20:04.635Z,12.30
2017-11-03T01:22:35.471Z,13.73
2017-11-03T01:25:06.328Z,13.33
2017-11-03T01:27:37.200Z,14.60
2017-11-03T01:30:08.048Z,14.17
2017-11-03T01:32:38.887Z,11.97
2017-11-03T01:35:09.756Z,14.17
2017-11-03T01:37:40.603Z,12.87
2017-11-03T01:40:11.478Z,13.80
2017-11-03T01:42:42.307Z,12.57
2017-11-03T01:45:13.177Z,14.30
2017-11-03T01:47:44.021Z,12.70
2017-11-03T01:50:14.880Z,13.33
2017-11-03T01:52:45.718Z,14.73
2017-11-03T01:55:16.571Z,10.17
2017-11-03T01:57:47.424Z,14.40
2017-11-03T02:00:18.271Z,12.17
2017-11-03T02:02:49.254Z,11.87
2017-11-03T02:05:20.115Z,14.60
2017-11-03T02:07:50.952Z,14.40
2017-11-03T02:10:21.827Z,10.53
2017-11-03T02:12:52.675Z,10.90
2017-11-03T02:15:23.520Z,10.87
2017-11-03T02:17:54.363Z,14.10
2017-11-03T02:20:25.227Z,11.37
2017-11-03T02:22:56.087Z,14.23
2017-11-03T02:25:26.923Z,12.20
2017-11-03T02:27:57.775Z,10.60
2017-11-03T02:30:28.619Z,12.43
2017-11-03T02:32:59.476Z,10.70
2017-11-03T02:35:30.340Z,12.23
2017-11-03T02:38:01.192Z,12.33
2017-11-03T02:40:32.047Z,11.40
2017-11-03T02:43:02.895Z,11.80
2017-11-03T02:45:33.824Z,9.23
2017-11-03T02:48:04.647Z,10.60
2017-11-03T02:50:35.479Z,12.80
2017-11-03T02:53:06.324Z,12.00
2017-11-03T02:55:37.183Z,13.53
2017-11-03T02:58:08.024Z,11.57
2017-11-03T03:00:38.875Z,12.67
2017-11-03T03:03:09.708Z,10.70
2017-11-03T03:05:40.567Z,13.70
2017-11-03T03:08:11.424Z,9.37
2017-11-03T03:10:42.284Z,8.40
2017-11-03T03:13:13.124Z,8.70
2017-11-03T03:15:43.997Z,11.00
2017-11-03T03:18:14.836Z,10.93
2017-11-03T03:20:45.789Z,9.67
2017-11-03T03:23:16.632Z,9.80
2017-11-03T03:25:47.476Z,11.30
2017-11-03T03:28:18.337Z,8.53
2017-11-03T03:30:49.181Z,11.23
2017-11-03T03:33:20.038Z,8.57
2017-11-03T03:35:50.896Z,8.03
2017-11-03T03:38:21.744Z,8.60
2017-11-03T03:40:52.607Z,9.47
2017-11-03T03:43:23.451Z,9.30
2017-11-03T03:45:54.312Z,8.80
2017-11-03T03:48:25.139Z,9.03
2017-11-03T03:50:55.968Z,8.80
2017-11-03T03:53:26.820Z,8.60
2017-11-03T03:55:57.680Z,9.20
2017-11-03T03:58:28.512Z,8.30
2017-11-03T04:00:59.392Z,9.30
2017-11-03T04:03:30.235Z,10.03
2017-11-03T04:06:01.064Z,10.33
2017-11-03T04:08:32.000Z,8.73
2017-11-03T04:11:02.820Z,7.57
2017-11-03T04:13:33.657Z,7.53
2017-11-03T04:16:04.504Z,8.27
2017-11-03T04:18:35.364Z,9.07
2017-11-03T04:21:06.220Z,8.33
2017-11-03T04:23:37.080Z,9.33
2017-11-03T04:26:07.945Z,14.17
2017-11-03T04:28:38.780Z,8.03
2017-11-03T04:31:09.655Z,7.30
2017-11-03T04:33:40.488Z,7.57
2017-11-03T04:36:11.351Z,8.60
2017-11-03T04:38:42.181Z,6.73
2017-11-03T04:41:13.026Z,9.83
2017-11-03T04:43:43.887Z,8.23
2017-11-03T04:46:14.753Z,9.53
2017-11-03T04:48:45.611Z,9.27
2017-11-03T04:51:16.472Z,7.53
2017-11-03T04:53:47.344Z,7.83
2017-11-03T04:56:18.217Z,12.60
2017-11-03T04:58:49.079Z,10.43
2017-11-03T05:01:19.909Z,8.00
2017-11-03T05:03:50.771Z,7.03
2017-11-03T05:06:21.604Z,8.00
2017-11-03T05:08:52.454Z,6.00
2017-11-03T05:11:23.307Z,6.90
2017-11-03T05:13:54.157Z,6.80
2017-11-03T05:16:25.013Z,6.30
2017-11-03T05:18:55.863Z,6.40
2017-11-03T05:21:26.729Z,5.23
2017-11-03T05:23:57.583Z,8.00
2017-11-03T05:26:28.436Z,7.30
2017-11-03T05:28:59.291Z,6.53
2017-11-03T05:31:30.155Z,7.00
2017-11-03T05:34:01.023Z,7.10
2017-11-03T05:36:31.879Z,6.73
2017-11-03T05:39:02.736Z,7.63
2017-11-03T05:41:33.567Z,6.27
2017-11-03T05:44:04.427Z,5.80
2017-11-03T05:46:35.268Z,5.37
2017-11-03T05:49:06.123Z,6.13
2017-11-03T05:51:36.983Z,6.40
2017-11-03T05:54:07.848Z,6.50
2017-11-03T05:56:38.691Z,5.73
2017-11-03T05:59:09.555Z,5.17
2017-11-03T06:01:40.409Z,5.60
2017-11-03T06:04:11.268Z,5.50
2017-11-03T06:06:42.128Z,6.17
2017-11-03T06:09:12.983Z,5.90
2017-11-03T06:11:43.836Z,5.67
2017-11-03T06:14:14.671Z,6.03
2017-11-03T06:16:45.496Z,5.10
2017-11-03T06:19:16.333Z,5.93
2017-11-03T06:21:47.230Z,8.67
2017-11-03T06:24:18.068Z,6.37
2017-11-03T06:26:48.933Z,6.00
2017-11-03T06:29:19.797Z,5.60
2017-11-03T06:31:50.662Z,5.33
2017-11-03T06:34:21.516Z,5.03
2017-11-03T06:36:52.383Z,5.20
2017-11-03T06:39:23.246Z,5.47
2017-11-03T06:41:54.115Z,4.83
2017-11-03T06:44:24.975Z,5.00
2017-11-03T06:46:55.832Z,5.63
2017-11-03T06:49:26.693Z,4.40
2017-11-03T06:51:57.545Z,3.60
2017-11-03T06:54:28.402Z,3.70
2017-11-03T06:56:59.298Z,3.30
2017-11-03T06:59:30.159Z,3.40
2017-11-03T07:02:01.011Z,3.00
2017-11-03T07:04:31.858Z,2.50
2017-11-03T07:07:02.743Z,2.27
2017-11-03T07:09:33.600Z,3.10
2017-11-03T07:12:04.447Z,2.53
2017-11-03T07:14:35.311Z,1.80
2017-11-03T07:17:06.174Z,2.23
2017-11-03T07:19:37.012Z,1.60
2017-11-03T07:22:07.857Z,2.13
2017-11-03T07:24:38.714Z,2.93
2017-11-03T07:27:09.551Z,2.07
2017-11-03T07:29:40.419Z,2.87
2017-11-03T07:32:11.251Z,2.47
2017-11-03T07:34:42.096Z,2.30
2017-11-03T07:37:12.931Z,2.13
2017-11-03T07:39:43.772Z,1.93
2017-11-03T07:42:14.616Z,2.53
2017-11-03T07:44:45.501Z,2.03
2017-11-03T07:47:16.340Z,2.10
2017-11-03T07:49:47.187Z,2.03
2017-11-03T07:52:18.036Z,2.30
2017-11-03T07:54:48.900Z,2.63
2017-11-03T07:57:19.756Z,1.67
2017-11-03T07:59:50.603Z,1.40
2017-11-03T08:02:21.463Z,1.77
2017-11-03T08:04:52.302Z,2.10
2017-11-03T08:07:23.170Z,2.50
2017-11-03T08:09:54.020Z,2.33
2017-11-03T08:12:24.876Z,2.27
2017-11-03T08:14:55.707Z,1.50
2017-11-03T08:17:26.544Z,2.30
2017-11-03T08:19:57.367Z,2.20
2017-11-03T08:22:28.250Z,1.83
2017-11-03T08:24:59.096Z,1.43
2017-11-03T08:27:29.966Z,2.07
2017-11-03T08:30:00.807Z,4.10
2017-11-03T08:32:31.697Z,1.53
2017-11-03T08:35:18.120Z,1.90
2017-11-03T08:37:48.991Z,1.57
2017-11-03T08:40:19.833Z,2.20
2017-11-03T08:42:50.686Z,1.67
2017-11-03T08:45:21.536Z,1.60
2017-11-03T08:47:52.416Z,3.80
2017-11-03T08:50:23.252Z,2.27
2017-11-03T08:52:54.080Z,2.23
2017-11-03T08:55:25.044Z,2.83
2017-11-03T08:57:55.880Z,4.60
2017-11-03T09:00:26.716Z,3.87
2017-11-03T09:02:57.527Z,4.17
2017-11-03T09:05:28.364Z,4.23
2017-11-03T09:07:59.184Z,6.33
2017-11-03T09:10:30.008Z,7.33
2017-11-03T09:13:00.838Z,7.00
2017-11-03T09:15:31.676Z,7.03
2017-11-03T09:18:02.515Z,7.23
2017-11-03T09:20:33.370Z,5.27
2017-11-03T09:23:04.236Z,5.50
2017-11-03T09:36:17.267Z,3.40
2017-11-03T09:38:48.120Z,6.93
2017-11-03T09:41:18.988Z,7.00
2017-11-03T09:43:49.832Z,3.90
2017-11-03T09:46:20.704Z,3.77
2017-11-03T09:48:51.559Z,2.90
2017-11-03T09:51:22.411Z,4.70
2017-11-03T09:53:53.279Z,3.03
2017-11-03T09:56:24.132Z,4.47
2017-11-03T09:58:54.972Z,5.27
2017-11-03T10:01:25.830Z,4.70
2017-11-03T10:03:56.702Z,3.30
2017-11-03T10:06:27.541Z,3.40
2017-11-03T10:08:58.393Z,5.47
2017-11-03T10:11:29.236Z,2.40
2017-11-03T10:14:00.093Z,2.80
2017-11-03T10:16:30.928Z,5.03
2017-11-03T10:19:01.767Z,2.70
2017-11-03T10:21:32.591Z,4.17
2017-11-03T10:24:03.435Z,3.90
2017-11-03T10:26:34.297Z,3.07
2017-11-03T10:29:05.163Z,1.53
2017-11-03T10:31:36.048Z,2.17
2017-11-03T10:34:07.015Z,2.53
2017-11-03T10:36:37.872Z,4.67
2017-11-03T10:39:08.716Z,4.60
2017-11-03T10:41:39.573Z,4.93
2017-11-03T10:44:10.423Z,2.50
2017-11-03T10:46:41.263Z,3.23
2017-11-03T10:49:12.128Z,5.33
2017-11-03T10:51:42.970Z,2.40
2017-11-03T10:54:19.127Z,5.30
2017-11-03T10:56:51.975Z,2.22
2017-11-03T10:59:22.821Z,2.47
2017-11-03T11:01:53.721Z,5.17
2017-11-03T11:04:24.595Z,4.80
2017-11-03T11:06:55.448Z,4.43
2017-11-03T11:09:26.295Z,3.30
2017-11-03T11:11:57.126Z,2.40
2017-11-03T11:14:27.985Z,3.50
2017-11-03T11:16:58.836Z,4.00
2017-11-03T11:19:29.685Z,8.00
2017-11-03T11:22:00.551Z,3.60
2017-11-03T11:24:31.387Z,3.20
2017-11-03T11:27:02.267Z,3.20
2017-11-03T11:29:33.096Z,2.70
2017-11-03T11:32:03.949Z,2.93
2017-11-03T11:34:34.787Z,2.47
2017-11-03T11:37:05.653Z,2.57
2017-11-03T11:39:36.488Z,3.13
2017-11-03T11:42:07.335Z,5.03
2017-11-03T11:44:38.186Z,3.33
2017-11-03T11:47:09.054Z,2.63
2017-11-03T11:49:39.927Z,4.90
2017-11-03T11:52:10.769Z,2.80
2017-11-03T11:54:41.632Z,3.57
2017-11-03T11:57:12.466Z,3.83
2017-11-03T11:59:43.303Z,3.13
2017-11-03T12:02:14.156Z,4.87
2017-11-03T12:04:45.048Z,2.50
2017-11-03T12:07:15.917Z,4.60
2017-11-03T12:09:46.769Z,2.70
2017-11-03T12:12:17.635Z,3.27
2017-11-03T12:14:48.509Z,3.43
2017-11-03T12:17:19.337Z,3.73
2017-11-03T12:19:50.177Z,3.80
2017-11-03T12:22:21.035Z,4.73
2017-11-03T12:24:51.916Z,4.50
2017-11-03T12:27:22.759Z,6.63
2017-11-03T12:29:53.695Z,3.27
2017-11-03T12:32:24.527Z,2.10
2017-11-03T12:34:55.372Z,2.90
2017-11-03T12:37:26.244Z,2.37
2017-11-03T12:39:57.074Z,3.83
2017-11-03T12:42:27.944Z,3.57
2017-11-03T12:44:58.784Z,2.70
2017-11-03T12:47:29.648Z,3.03
2017-11-03T12:50:00.504Z,3.90
2017-11-03T12:52:31.368Z,3.57
2017-11-03T12:55:02.223Z,5.83
2017-11-03T12:57:33.093Z,6.60
2017-11-03T13:00:03.952Z,9.03
2017-11-03T13:02:34.821Z,6.63
2017-11-03T13:05:05.672Z,8.10
2017-11-03T13:07:36.536Z,5.20
2017-11-03T13:10:07.421Z,4.90
2017-11-03T13:12:38.293Z,4.37
2017-11-03T13:15:09.139Z,5.50
2017-11-03T13:17:39.981Z,3.53
2017-11-03T13:20:10.865Z,6.40
2017-11-03T13:22:41.719Z,4.40
2017-11-03T13:25:12.589Z,3.93
2017-11-03T13:27:43.444Z,4.00
2017-11-03T13:30:14.327Z,5.90
2017-11-03T13:32:45.172Z,4.57
2017-11-03T13:35:16.039Z,3.53
2017-11-03T13:37:46.896Z,4.27
2017-11-03T13:40:17.740Z,3.03
2017-11-03T13:42:48.617Z,3.30
2017-11-03T13:45:19.459Z,3.63
2017-11-03T13:47:50.322Z,4.40
2017-11-03T13:50:21.167Z,4.00
2017-11-03T13:52:52.050Z,3.53
2017-11-03T13:58:09.578Z,4.70
2017-11-03T14:00:40.452Z,4.63
2017-11-03T14:03:11.333Z,4.50
2017-11-03T14:05:42.212Z,5.50
2017-11-03T14:08:13.058Z,7.20
2017-11-03T14:10:43.911Z,6.50
2017-11-03T14:13:14.744Z,5.83
2017-11-03T14:15:45.594Z,6.03
2017-11-03T14:18:16.428Z,6.37
2017-11-03T14:20:47.296Z,8.47
2017-11-03T14:23:18.131Z,7.87
2017-11-03T14:25:48.985Z,6.13
2017-11-03T14:28:19.862Z,6.97
2017-11-03T14:30:50.702Z,4.43
2017-11-03T14:33:21.568Z,7.77
2017-11-03T14:35:52.416Z,6.93
2017-11-03T14:38:23.361Z,6.40
2017-11-03T14:40:54.198Z,6.80
2017-11-03T14:43:25.072Z,7.43
2017-11-03T14:45:55.940Z,5.37
2017-11-03T14:48:26.804Z,5.87
2017-11-03T14:50:57.683Z,5.20
2017-11-03T14:53:28.528Z,8.57
2017-11-03T14:55:59.379Z,4.80
2017-11-03T14:58:30.217Z,5.37
2017-11-03T15:01:01.048Z,6.93
2017-11-03T15:03:31.895Z,3.13
2017-11-03T15:06:02.763Z,2.10
2017-11-03T15:08:33.618Z,2.43
2017-11-03T15:11:04.466Z,1.50
2017-11-03T15:13:35.329Z,2.03
2017-11-03T15:16:06.179Z,2.50
2017-11-03T15:18:37.048Z,5.00
2017-11-03T15:21:08.001Z,3.70
2017-11-03T15:25:49.632Z,5.87
2017-11-03T15:28:20.515Z,2.72
2017-11-03T15:30:51.389Z,2.93
2017-11-03T15:33:22.528Z,3.17
2017-11-03T15:35:53.419Z,2.00
2017-11-03T15:38:24.405Z,2.40
2017-11-03T15:40:55.275Z,1.63
2017-11-03T15:43:26.116Z,2.60
2017-11-03T15:45:56.968Z,2.00
2017-11-03T15:48:27.863Z,2.70
2017-11-03T15:50:58.727Z,2.57
2017-11-03T15:53:29.572Z,1.77
2017-11-03T15:56:00.447Z,1.80
2017-11-03T15:58:31.297Z,2.47
2017-11-03T16:01:02.142Z,1.60
2017-11-03T16:03:32.996Z,2.20
2017-11-03T16:06:03.844Z,4.17
2017-11-03T16:08:34.716Z,1.77
2017-11-03T16:11:05.560Z,2.20
2017-11-03T16:13:36.415Z,2.30
2017-11-03T16:16:07.268Z,2.47
2017-11-03T16:18:38.148Z,3.17
2017-11-03T16:21:09.009Z,3.47
2017-11-03T16:23:39.857Z,3.57
2017-11-03T16:26:10.725Z,3.60
2017-11-03T16:28:41.921Z,3.77
2017-11-03T16:31:12.790Z,8.52
2017-11-03T16:33:43.638Z,2.50
2017-11-03T16:36:14.532Z,6.00
2017-11-03T16:38:45.374Z,8.33
2017-11-03T16:41:16.251Z,8.10
2017-11-03T16:43:47.111Z,14.67
2017-11-03T16:46:17.963Z,12.10
2017-11-03T16:48:48.832Z,25.70
2017-11-03T16:51:19.691Z,12.00
2017-11-03T16:53:50.543Z,40.33
2017-11-03T16:56:21.432Z,43.83
2017-11-03T16:58:52.284Z,32.40
2017-11-03T17:01:23.172Z,27.30
2017-11-03T17:03:54.028Z,25.73
2017-11-03T17:06:24.962Z,24.83
2017-11-03T17:08:56.873Z,21.87
2017-11-03T17:11:27.717Z,21.58
2017-11-03T17:13:58.588Z,20.07
2017-11-03T17:16:29.465Z,16.10
2017-11-03T17:19:00.333Z,17.63
2017-11-03T17:21:31.184Z,9.27
2017-11-03T17:24:02.042Z,9.30
2017-11-03T17:26:32.898Z,8.73
2017-11-03T17:29:03.769Z,7.43
2017-11-03T17:31:34.608Z,8.30
2017-11-03T17:34:05.493Z,5.60
2017-11-03T17:36:36.332Z,4.93
2017-11-03T17:39:07.198Z,4.33
2017-11-03T17:41:38.069Z,3.27
2017-11-03T17:44:08.912Z,5.63
2017-11-03T17:46:39.776Z,6.83
2017-11-03T17:49:10.652Z,4.50
2017-11-03T17:51:41.510Z,8.57
2017-11-03T17:54:12.341Z,8.10
2017-11-03T17:56:43.204Z,8.50
2017-11-03T17:59:14.052Z,6.40
2017-11-03T18:01:44.938Z,6.00
2017-11-03T18:04:15.780Z,7.07
2017-11-03T18:06:46.681Z,8.10
2017-11-03T18:09:17.523Z,4.57
2017-11-03T18:11:48.412Z,6.73
2017-11-03T18:14:19.273Z,4.87
2017-11-03T18:16:50.119Z,6.07
2017-11-03T18:19:20.989Z,8.53
2017-11-03T18:21:51.847Z,7.30
2017-11-03T18:24:22.709Z,6.00
2017-11-03T18:26:53.565Z,9.10
2017-11-03T18:29:24.436Z,6.50
2017-11-03T18:31:55.280Z,9.20
2017-11-03T18:34:26.187Z,6.87
2017-11-03T18:36:57.014Z,4.63
2017-11-03T18:39:27.891Z,6.60
2017-11-03T18:41:58.752Z,8.00
2017-11-03T18:44:29.607Z,7.40
2017-11-03T18:47:01.043Z,7.53
2017-11-03T18:49:31.884Z,5.72
2017-11-03T18:52:02.703Z,8.23
2017-11-03T18:54:33.527Z,5.63
2017-11-03T18:57:04.356Z,5.97
2017-11-03T18:59:35.199Z,5.27
2017-11-03T19:02:06.029Z,5.20
2017-11-03T19:04:36.870Z,7.80
2017-11-03T19:07:07.735Z,5.90
2017-11-03T19:09:38.625Z,6.63
2017-11-03T19:12:09.483Z,10.17
2017-11-03T19:14:40.361Z,5.50
2017-11-03T19:17:11.244Z,2.77
2017-11-03T19:19:42.076Z,3.53
2017-11-03T19:22:12.913Z,2.53
2017-11-03T19:24:43.750Z,2.90
2017-11-03T19:27:14.600Z,3.77
2017-11-03T19:29:45.444Z,5.53
2017-11-03T19:32:16.314Z,4.53
2017-11-03T19:34:47.197Z,5.13
2017-11-03T19:37:18.077Z,4.53
2017-11-03T19:39:48.949Z,4.43
2017-11-03T19:42:19.814Z,5.90
2017-11-03T19:44:50.695Z,5.33
2017-11-03T19:47:21.557Z,4.83
2017-11-03T19:49:52.418Z,6.70
2017-11-03T19:52:23.328Z,6.80
2017-11-03T19:54:54.199Z,6.90
2017-11-03T19:57:25.075Z,14.03
2017-11-03T19:59:55.941Z,17.27
2017-11-03T20:02:26.822Z,17.63
2017-11-03T20:04:57.668Z,21.13
2017-11-03T20:07:28.543Z,23.67
2017-11-03T20:09:59.418Z,31.73
2017-11-03T20:12:30.373Z,31.27
2017-11-03T20:15:01.221Z,31.70
2017-11-03T20:17:32.107Z,29.30
2017-11-03T20:20:02.964Z,26.07
2017-11-03T20:22:33.841Z,25.33
2017-11-03T20:25:04.715Z,23.17
2017-11-03T20:27:35.604Z,24.27
2017-11-03T20:30:06.481Z,21.50
2017-11-03T20:32:37.343Z,20.43
2017-11-03T20:35:08.206Z,16.37
2017-11-03T20:37:39.061Z,19.40
2017-11-03T20:40:09.958Z,21.37
2017-11-03T20:42:40.921Z,19.43
2017-11-03T20:45:11.839Z,20.83
2017-11-03T20:47:42.718Z,17.70
2017-11-03T20:50:13.576Z,16.37
2017-11-03T20:52:44.454Z,17.67
2017-11-03T20:55:15.430Z,22.10
2017-11-03T20:57:46.364Z,14.33
2017-11-03T21:00:17.224Z,15.00
2017-11-03T21:02:48.160Z,14.10
2017-11-03T21:05:19.014Z,11.70
2017-11-03T21:07:49.907Z,15.70
2017-11-03T21:10:20.764Z,12.20
2017-11-03T21:12:51.664Z,12.90
2017-11-03T21:15:22.505Z,10.60
2017-11-03T21:17:53.377Z,10.50
2017-11-03T21:20:24.237Z,9.53
2017-11-03T21:22:55.107Z,9.03
2017-11-03T21:25:26.006Z,7.97
2017-11-03T21:27:56.850Z,11.00
2017-11-03T21:30:27.760Z,12.63
2017-11-03T21:32:58.605Z,9.70
2017-11-03T21:35:29.503Z,7.20
2017-11-03T21:38:00.352Z,8.57
2017-11-03T21:40:31.235Z,6.80
2017-11-03T21:43:02.132Z,6.00
2017-11-03T21:45:33.025Z,7.60
2017-11-03T21:48:03.879Z,6.80
2017-11-03T21:50:34.782Z,7.73
2017-11-03T21:53:05.621Z,10.33
2017-11-03T21:55:36.503Z,8.17
2017-11-03T21:58:07.377Z,11.37
2017-11-03T22:00:38.227Z,7.00
2017-11-03T22:03:09.108Z,7.37
2017-11-03T22:05:39.957Z,12.67
2017-11-03T22:08:10.826Z,11.60
2017-11-03T22:10:41.681Z,8.50
2017-11-03T22:13:12.574Z,11.13
2017-11-03T22:15:43.412Z,10.00
2017-11-03T22:18:14.268Z,13.90
2017-11-03T22:20:45.131Z,11.43
2017-11-03T22:23:16.000Z,7.60
2017-11-03T22:25:46.887Z,8.30
2017-11-03T22:28:17.828Z,9.70
2017-11-03T22:30:48.682Z,7.87
2017-11-03T22:33:19.563Z,9.60
2017-11-03T22:35:50.407Z,7.93
2017-11-03T22:38:21.273Z,9.30
2017-11-03T22:40:52.129Z,9.40
2017-11-03T22:43:23.056Z,9.77
2017-11-03T22:45:53.939Z,8.00
2017-11-03T22:48:24.834Z,9.00
2017-11-03T22:50:55.701Z,13.23
2017-11-03T22:53:26.552Z,16.30
2017-11-03T22:55:57.787Z,23.07
2017-11-03T22:58:28.645Z,22.17
2017-11-03T23:00:59.524Z,18.40
2017-11-03T23:03:30.364Z,20.67
2017-11-03T23:06:01.233Z,18.23
2017-11-03T23:08:32.123Z,15.30
2017-11-03T23:11:02.977Z,18.03
2017-11-03T23:13:33.860Z,21.23
2017-11-03T23:16:04.728Z,17.23
2017-11-03T23:18:35.605Z,16.23
2017-11-03T23:21:06.445Z,16.40
2017-11-03T23:23:37.326Z,17.50
2017-11-03T23:26:08.164Z,15.90
2017-11-03T23:28:39.022Z,19.60
2017-11-03T23:31:09.869Z,16.00
2017-11-03T23:33:40.775Z,14.50
2017-11-03T23:36:11.645Z,14.90
2017-11-03T23:38:42.496Z,13.60
2017-11-03T23:41:13.366Z,17.07
2017-11-03T23:43:44.223Z,14.23
2017-11-03T23:46:15.076Z,15.83
2017-11-03T23:48:45.951Z,15.17
2017-11-03T23:51:16.839Z,17.50
2017-11-03T23:53:47.688Z,15.23
2017-11-03T23:56:18.557Z,14.93
2017-11-03T23:58:49.416Z,16.20
